Time;durP1;ratioP1;P1;durP2;ratioP2;P2;SDS_P1;SDS_P2;PMS_P1;PMS_P2;Temp;Humidity;BMP_temperature;BMP_pressure;BME280_temperature;BME280_humidity;BME280_pressure;Samples;Min_cycle;Max_cycle;Signal;HPM_P1;HPM_P2
2022/03/13 00:02:16;;;;;;;18.65;15.00;;;4.70;84.40;;;;;;5053191;28;20188;-78
2022/03/13 00:04:44;;;;;;;21.65;14.95;;;4.50;85.00;;;;;;5060026;28;20568;-78
2022/03/13 00:07:16;;;;;;;19.58;13.88;;;4.90;86.10;;;;;;5065753;28;20188;-78
2022/03/13 00:09:44;;;;;;;19.77;15.07;;;5.10;85.40;;;;;;5060707;28;20184;-78
2022/03/13 00:12:14;;;;;;;20.75;15.13;;;5.10;85.80;;;;;;5074394;28;20179;-78
2022/03/13 00:14:42;;;;;;;19.95;14.63;;;5.00;86.70;;;;;;5066971;28;20296;-78
2022/03/13 00:17:08;;;;;;;24.90;16.63;;;4.70;86.70;;;;;;5068793;28;20253;-78
2022/03/13 00:19:34;;;;;;;22.38;15.63;;;4.40;86.20;;;;;;5073966;28;20203;-78
2022/03/13 00:21:59;;;;;;;29.53;16.40;;;4.60;86.40;;;;;;5071332;28;20762;-77
2022/03/13 00:24:25;;;;;;;18.70;14.23;;;4.60;87.30;;;;;;5063736;28;20703;-77
2022/03/13 00:26:51;;;;;;;20.87;15.17;;;4.60;87.40;;;;;;5062055;28;20178;-78
2022/03/13 00:29:17;;;;;;;20.98;16.02;;;4.90;88.40;;;;;;5069634;28;20436;-78
2022/03/13 00:31:43;;;;;;;21.73;15.93;;;4.50;87.10;;;;;;5071187;28;20212;-78
2022/03/13 00:34:08;;;;;;;25.00;16.17;;;4.50;86.70;;;;;;5070937;28;20291;-78
2022/03/13 00:36:34;;;;;;;21.23;15.10;;;4.50;88.10;;;;;;5062241;28;20234;-78
2022/03/13 00:38:59;;;;;;;18.67;15.47;;;4.20;88.50;;;;;;5073631;28;20713;-78
2022/03/13 00:41:25;;;;;;;21.57;15.47;;;4.60;89.40;;;;;;5072897;28;20181;-78
2022/03/13 00:43:51;;;;;;;19.83;16.80;;;4.20;88.40;;;;;;5066433;28;20229;-78
2022/03/13 00:46:16;;;;;;;18.93;14.53;;;4.40;89.30;;;;;;5071130;28;20303;-78
2022/03/13 00:48:42;;;;;;;21.63;16.17;;;4.10;89.70;;;;;;5084290;28;20181;-78
2022/03/13 00:51:08;;;;;;;23.57;16.97;;;4.00;90.10;;;;;;5079921;28;20195;-78
2022/03/13 00:53:33;;;;;;;19.92;14.50;;;4.20;90.50;;;;;;5067848;28;20238;-78
2022/03/13 00:55:59;;;;;;;22.17;15.90;;;4.30;90.30;;;;;;5072163;28;20271;-78
2022/03/13 00:58:24;;;;;;;21.70;16.47;;;4.00;89.90;;;;;;5074439;28;20185;-79
2022/03/13 01:00:50;;;;;;;21.57;15.30;;;4.20;90.40;;;;;;5083709;28;20572;-78
2022/03/13 01:03:31;;;;;;;21.10;15.10;;;3.80;90.40;;;;;;5082105;28;20663;-78
2022/03/13 01:05:57;;;;;;;21.25;14.73;;;3.90;90.50;;;;;;5079746;28;20193;-78
2022/03/13 01:08:22;;;;;;;21.35;15.98;;;4.30;90.70;;;;;;5066850;28;20184;-78
2022/03/13 01:10:50;;;;;;;20.17;14.70;;;4.40;90.80;;;;;;5082321;28;20238;-78
2022/03/13 01:13:15;;;;;;;20.95;15.68;;;3.60;90.40;;;;;;5070571;28;20642;-78
2022/03/13 01:15:45;;;;;;;20.60;15.83;;;3.50;90.60;;;;;;5054956;28;20295;-78
2022/03/13 01:18:10;;;;;;;21.17;15.27;;;3.90;91.00;;;;;;5063220;28;20180;-78
2022/03/13 01:20:36;;;;;;;21.50;16.70;;;3.80;91.20;;;;;;5072907;28;20209;-78
2022/03/13 01:23:01;;;;;;;21.10;14.30;;;3.90;91.10;;;;;;5045677;28;20188;-78
2022/03/13 01:25:27;;;;;;;21.63;15.60;;;3.60;91.20;;;;;;5069248;28;20266;-78
2022/03/13 01:27:53;;;;;;;19.37;14.23;;;4.00;91.20;;;;;;5067698;28;20217;-78
2022/03/13 01:30:19;;;;;;;23.05;15.57;;;3.60;90.80;;;;;;5062003;28;20194;-78
2022/03/13 01:32:52;;;;;;;23.80;16.73;;;3.90;91.20;;;;;;5053738;28;20181;-78
2022/03/13 01:35:23;;;;;;;20.85;15.80;;;3.70;91.20;;;;;;5047624;28;20202;-78
2022/03/13 01:37:49;;;;;;;22.25;15.57;;;4.00;91.50;;;;;;5074320;28;20190;-78
2022/03/13 01:40:20;;;;;;;22.42;15.65;;;3.80;91.50;;;;;;5060867;28;20250;-78
2022/03/13 01:42:47;;;;;;;18.10;14.10;;;3.60;91.30;;;;;;5069935;28;20234;-78
2022/03/13 01:45:15;;;;;;;19.45;14.60;;;3.70;91.40;;;;;;5067453;28;20233;-78
2022/03/13 01:47:42;;;;;;;19.38;14.75;;;3.30;91.40;;;;;;5075667;28;20185;-78
2022/03/13 01:50:09;;;;;;;19.95;15.07;;;3.30;91.30;;;;;;5071394;28;20196;-78
2022/03/13 01:52:37;;;;;;;20.70;15.50;;;3.50;91.30;;;;;;5054476;28;20188;-78
2022/03/13 01:55:03;;;;;;;19.27;14.68;;;3.60;91.40;;;;;;5044388;28;20206;-78
2022/03/13 01:57:29;;;;;;;20.52;15.65;;;3.70;91.80;;;;;;5066020;28;20306;-78
2022/03/13 01:59:57;;;;;;;22.43;16.40;;;3.50;91.20;;;;;;5068797;28;20691;-78
2022/03/13 02:02:24;;;;;;;21.05;15.35;;;3.60;91.60;;;;;;5079725;28;20439;-78
2022/03/13 02:04:52;;;;;;;22.40;15.85;;;3.20;91.60;;;;;;5051690;28;20217;-77
2022/03/13 02:07:19;;;;;;;22.70;15.30;;;3.50;91.50;;;;;;5071945;28;20190;-78
2022/03/13 02:09:46;;;;;;;22.95;14.30;;;3.80;91.70;;;;;;5070291;28;20661;-78
2022/03/13 02:12:12;;;;;;;20.20;14.30;;;3.30;92.00;;;;;;5058902;28;20533;-78
2022/03/13 02:14:38;;;;;;;22.92;15.65;;;3.80;92.30;;;;;;5038726;28;20210;-78
2022/03/13 02:17:04;;;;;;;22.50;15.73;;;3.60;92.00;;;;;;5074530;28;20184;-78
2022/03/13 02:19:30;;;;;;;24.33;16.45;;;3.90;92.00;;;;;;5073077;28;20987;-78
2022/03/13 02:21:58;;;;;;;19.00;14.37;;;3.20;91.80;;;;;;5074251;28;20182;-77
2022/03/13 02:24:25;;;;;;;23.67;15.55;;;3.30;92.10;;;;;;5049775;28;20217;-78
2022/03/13 02:27:00;;;;;;;23.70;16.55;;;3.30;92.40;;;;;;5071592;28;20185;-78
2022/03/13 02:29:26;;;;;;;21.65;14.50;;;3.40;92.30;;;;;;5064739;28;20665;-78
2022/03/13 02:31:52;;;;;;;20.70;14.15;;;3.00;91.50;;;;;;5064477;28;20169;-78
2022/03/13 02:34:19;;;;;;;19.20;13.93;;;3.30;92.00;;;;;;5051120;28;20288;-78
2022/03/13 02:36:49;;;;;;;22.58;14.85;;;2.90;91.90;;;;;;5066378;28;20439;-77
2022/03/13 02:39:15;;;;;;;20.33;14.13;;;3.30;91.70;;;;;;5051480;28;20234;-78
2022/03/13 02:41:41;;;;;;;22.17;14.93;;;3.20;91.80;;;;;;5065671;28;20182;-78
2022/03/13 02:44:08;;;;;;;17.70;14.10;;;3.20;91.80;;;;;;5046727;28;20554;-78
2022/03/13 02:46:46;;;;;;;19.83;14.32;;;3.20;92.00;;;;;;5053338;28;20288;-77
2022/03/13 02:49:18;;;;;;;20.25;14.02;;;3.30;91.70;;;;;;5056442;28;20231;-78
2022/03/13 02:51:44;;;;;;;17.77;13.00;;;3.50;92.10;;;;;;5050763;28;20261;-78
2022/03/13 02:54:10;;;;;;;19.20;14.05;;;3.20;91.20;;;;;;5053573;28;20209;-78
2022/03/13 02:56:36;;;;;;;19.50;14.07;;;3.70;91.70;;;;;;5054129;28;20658;-78
2022/03/13 02:59:01;;;;;;;18.23;14.80;;;3.50;91.50;;;;;;5059719;28;20970;-78
2022/03/13 03:01:27;;;;;;;18.13;13.90;;;3.00;91.50;;;;;;5049676;28;20451;-78
2022/03/13 03:03:57;;;;;;;19.87;14.60;;;3.50;91.90;;;;;;5064813;28;20217;-78
2022/03/13 03:06:25;;;;;;;21.60;14.07;;;3.10;91.40;;;;;;5065267;28;20174;-78
2022/03/13 03:08:53;;;;;;;19.92;13.88;;;3.50;91.80;;;;;;5046326;28;20178;-77
2022/03/13 03:11:19;;;;;;;16.90;13.57;;;3.20;91.40;;;;;;5045368;28;20185;-78
2022/03/13 03:13:44;;;;;;;20.00;13.20;;;2.80;91.80;;;;;;5032589;28;20271;-78
2022/03/13 03:16:10;;;;;;;18.93;14.20;;;3.10;92.50;;;;;;5046320;28;20216;-78
2022/03/13 03:18:36;;;;;;;20.20;13.37;;;3.10;92.40;;;;;;5075078;28;20246;-78
2022/03/13 03:21:01;;;;;;;17.50;13.83;;;2.90;91.90;;;;;;5067973;28;20213;-78
2022/03/13 03:23:27;;;;;;;16.13;12.27;;;2.90;92.10;;;;;;5063526;28;20184;-78
2022/03/13 03:25:52;;;;;;;17.17;13.47;;;2.80;92.20;;;;;;5070163;28;20201;-78
2022/03/13 03:28:18;;;;;;;18.03;13.27;;;3.00;91.90;;;;;;5045126;28;20463;-78
2022/03/13 03:30:45;;;;;;;17.70;13.55;;;2.50;91.50;;;;;;5063577;28;20226;-78
2022/03/13 03:33:11;;;;;;;17.05;12.85;;;3.10;91.60;;;;;;5065626;28;20197;-78
2022/03/13 03:35:37;;;;;;;18.83;13.70;;;3.10;91.50;;;;;;5065337;28;20211;-78
2022/03/13 03:38:03;;;;;;;18.87;13.60;;;3.50;91.70;;;;;;5043214;28;20255;-78
2022/03/13 03:40:31;;;;;;;18.83;13.05;;;3.00;91.60;;;;;;5062593;28;20239;-78
2022/03/13 03:42:58;;;;;;;17.02;13.02;;;3.30;91.40;;;;;;5058432;28;20181;-78
2022/03/13 03:45:24;;;;;;;16.40;12.13;;;3.50;91.50;;;;;;5064912;28;20201;-77
2022/03/13 03:47:50;;;;;;;17.70;12.90;;;3.20;91.20;;;;;;5067774;28;20181;-79
2022/03/13 03:50:16;;;;;;;16.77;13.18;;;3.00;91.00;;;;;;5067188;28;20442;-78
2022/03/13 03:52:42;;;;;;;18.77;12.60;;;2.90;91.30;;;;;;5064366;28;20268;-78
2022/03/13 03:55:08;;;;;;;17.40;13.43;;;2.80;91.60;;;;;;5070123;28;20762;-78
2022/03/13 03:57:33;;;;;;;21.35;13.45;;;2.80;91.60;;;;;;5067919;28;20619;-78
2022/03/13 03:59:59;;;;;;;16.00;12.77;;;3.30;91.80;;;;;;5071765;28;20268;-78
2022/03/13 04:02:25;;;;;;;21.00;13.80;;;3.20;91.70;;;;;;5046312;28;20268;-78
2022/03/13 04:04:50;;;;;;;17.30;12.93;;;3.20;92.00;;;;;;5063627;28;20232;-78
2022/03/13 04:07:17;;;;;;;21.23;13.57;;;3.10;91.90;;;;;;5067042;28;20213;-78
2022/03/13 04:09:42;;;;;;;17.42;12.63;;;3.00;91.90;;;;;;5071131;28;20173;-77
2022/03/13 04:12:08;;;;;;;19.10;12.87;;;2.90;92.00;;;;;;5067119;28;20233;-78
2022/03/13 04:14:35;;;;;;;16.20;13.40;;;2.80;92.20;;;;;;5067628;28;20749;-78
2022/03/13 04:17:01;;;;;;;16.25;12.77;;;3.30;92.80;;;;;;5065357;28;20950;-78
2022/03/13 04:19:27;;;;;;;18.50;12.60;;;3.30;92.80;;;;;;5063796;28;20535;-78
2022/03/13 04:21:53;;;;;;;16.38;12.32;;;3.00;92.40;;;;;;5056833;28;20180;-78
2022/03/13 04:24:18;;;;;;;16.70;13.00;;;3.00;92.30;;;;;;5058403;28;20606;-78
2022/03/13 04:26:44;;;;;;;15.33;13.00;;;3.40;91.90;;;;;;5046831;28;20180;-79
2022/03/13 04:29:10;;;;;;;17.20;12.70;;;3.40;92.00;;;;;;5067728;28;20259;-78
2022/03/13 04:31:43;;;;;;;18.13;12.32;;;3.20;91.50;;;;;;5070972;28;20181;-78
2022/03/13 04:34:09;;;;;;;17.73;13.50;;;3.00;90.70;;;;;;5065235;28;20269;-77
2022/03/13 04:36:37;;;;;;;17.20;13.15;;;3.20;91.40;;;;;;5069397;28;20193;-78
2022/03/13 04:39:04;;;;;;;19.10;13.15;;;3.10;91.20;;;;;;5054032;28;20189;-78
2022/03/13 04:41:30;;;;;;;19.83;13.32;;;2.80;91.00;;;;;;5067327;28;20190;-78
2022/03/13 04:43:55;;;;;;;19.00;13.60;;;3.60;91.10;;;;;;5063421;28;20228;-78
2022/03/13 04:46:21;;;;;;;18.67;12.63;;;3.10;91.10;;;;;;5069550;28;20185;-78
2022/03/13 04:48:47;;;;;;;22.02;13.40;;;3.20;91.40;;;;;;5078314;28;20649;-78
2022/03/13 04:51:12;;;;;;;17.50;13.53;;;3.00;91.60;;;;;;5061762;28;20188;-78
2022/03/13 04:53:39;;;;;;;17.67;13.10;;;3.00;91.70;;;;;;5056939;28;20185;-78
2022/03/13 04:56:05;;;;;;;19.60;13.43;;;2.90;91.80;;;;;;5063347;28;20257;-78
2022/03/13 04:58:31;;;;;;;18.33;13.38;;;2.80;92.20;;;;;;5061649;28;20272;-78
2022/03/13 05:00:57;;;;;;;20.60;13.82;;;2.90;92.50;;;;;;5075911;28;20184;-78
2022/03/13 05:03:23;;;;;;;22.67;14.00;;;2.80;92.30;;;;;;5070037;28;20190;-78
2022/03/13 05:05:49;;;;;;;21.05;13.50;;;3.10;92.30;;;;;;5047979;28;20751;-78
2022/03/13 05:08:17;;;;;;;17.35;13.82;;;3.10;92.30;;;;;;5060719;28;20185;-78
2022/03/13 05:10:44;;;;;;;19.98;13.32;;;3.00;92.40;;;;;;5072659;28;20212;-78
2022/03/13 05:13:12;;;;;;;18.48;13.48;;;3.30;92.50;;;;;;5041486;28;20185;-77
2022/03/13 05:15:39;;;;;;;19.85;13.68;;;2.90;92.10;;;;;;5050823;28;20206;-78
2022/03/13 05:18:05;;;;;;;16.88;13.20;;;3.60;92.50;;;;;;5044949;28;20277;-78
2022/03/13 05:20:31;;;;;;;15.32;12.38;;;3.60;92.20;;;;;;5060300;28;20176;-78
2022/03/13 05:22:57;;;;;;;19.00;12.45;;;2.70;91.70;;;;;;5039501;28;20182;-78
2022/03/13 05:25:24;;;;;;;19.05;14.50;;;3.20;92.10;;;;;;5060459;28;20212;-78
2022/03/13 05:27:50;;;;;;;19.48;14.60;;;3.30;92.30;;;;;;5059100;28;20227;-77
2022/03/13 05:30:17;;;;;;;17.30;13.50;;;3.40;92.10;;;;;;5050920;28;20181;-77
2022/03/13 05:32:42;;;;;;;18.73;13.32;;;3.60;92.30;;;;;;5048428;28;20235;-81
2022/03/13 05:35:10;;;;;;;16.93;13.30;;;3.40;92.00;;;;;;5052338;28;20209;-79
2022/03/13 05:37:36;;;;;;;23.13;14.65;;;3.40;92.20;;;;;;5070269;28;20193;-80
2022/03/13 05:40:02;;;;;;;17.65;13.68;;;3.30;92.00;;;;;;5044966;28;20181;-79
2022/03/13 05:42:28;;;;;;;21.40;14.20;;;3.40;92.20;;;;;;5043185;28;20481;-80
2022/03/13 05:44:54;;;;;;;18.10;14.17;;;3.60;92.20;;;;;;5069272;28;20750;-80
2022/03/13 05:47:21;;;;;;;19.60;14.55;;;4.00;92.20;;;;;;5061154;28;20211;-80
2022/03/13 05:49:47;;;;;;;19.15;13.85;;;3.70;92.00;;;;;;5074271;28;20185;-79
2022/03/13 05:52:13;;;;;;;17.00;12.55;;;3.50;91.90;;;;;;5070226;28;20184;-78
2022/03/13 05:54:40;;;;;;;19.95;14.10;;;4.00;92.20;;;;;;5059323;28;20576;-77
2022/03/13 05:57:06;;;;;;;17.35;13.52;;;4.00;92.10;;;;;;5063626;28;20192;-78
2022/03/13 05:59:34;;;;;;;17.98;13.48;;;3.50;92.00;;;;;;5043546;28;20197;-80
2022/03/13 06:02:01;;;;;;;19.73;13.27;;;4.10;92.20;;;;;;5048554;28;20185;-79
2022/03/13 06:04:27;;;;;;;16.33;12.75;;;3.60;91.90;;;;;;5052883;28;20217;-82
2022/03/13 06:06:52;;;;;;;19.47;14.50;;;3.60;91.90;;;;;;5060818;28;20187;-80
2022/03/13 06:09:18;;;;;;;19.80;13.50;;;3.60;92.00;;;;;;5077018;28;20181;-79
2022/03/13 06:11:43;;;;;;;21.93;12.90;;;4.00;91.80;;;;;;5067347;28;20177;-79
2022/03/13 06:14:09;;;;;;;19.10;14.43;;;4.00;91.30;;;;;;5066641;28;20177;-79
2022/03/13 06:16:35;;;;;;;18.50;14.60;;;3.90;91.80;;;;;;5051487;28;20243;-81
2022/03/13 06:19:01;;;;;;;18.05;13.90;;;4.40;92.00;;;;;;5057353;28;20196;-80
2022/03/13 06:21:26;;;;;;;18.60;14.37;;;3.80;91.40;;;;;;5054138;28;20186;-77
2022/03/13 06:23:52;;;;;;;19.60;13.80;;;4.20;91.80;;;;;;5074362;28;20212;-82
2022/03/13 06:26:17;;;;;;;15.40;12.97;;;4.30;91.70;;;;;;5052157;28;20216;-79
2022/03/13 06:28:43;;;;;;;19.57;14.13;;;4.50;91.80;;;;;;5066087;28;20666;-79
2022/03/13 06:31:09;;;;;;;18.37;14.03;;;4.20;91.60;;;;;;5054585;28;20186;-79
2022/03/13 06:33:35;;;;;;;20.63;14.30;;;3.80;91.60;;;;;;5063195;28;20207;-81
2022/03/13 06:36:00;;;;;;;22.13;14.37;;;4.00;91.80;;;;;;5070191;28;20235;-80
2022/03/13 06:38:26;;;;;;;27.27;15.30;;;4.40;92.20;;;;;;5065509;28;20185;-78
2022/03/13 06:40:52;;;;;;;21.47;14.83;;;3.70;92.10;;;;;;5067713;28;21036;-79
2022/03/13 06:43:17;;;;;;;19.37;14.03;;;3.90;92.30;;;;;;5064889;28;20239;-78
2022/03/13 06:45:43;;;;;;;22.50;14.27;;;3.80;92.50;;;;;;5078684;28;20679;-79
2022/03/13 06:48:08;;;;;;;22.63;15.47;;;3.80;92.50;;;;;;5067866;28;20511;-85
2022/03/13 06:50:35;;;;;;;23.03;14.80;;;4.20;92.60;;;;;;5049822;28;20895;-81
2022/03/13 06:53:01;;;;;;;19.25;14.57;;;4.20;92.30;;;;;;5049611;28;20189;-83
2022/03/13 06:55:27;;;;;;;26.40;16.58;;;4.20;92.10;;;;;;5046137;28;20202;-83
2022/03/13 06:57:53;;;;;;;21.75;15.43;;;4.40;92.10;;;;;;5055137;28;20213;-83
2022/03/13 07:00:19;;;;;;;27.53;15.53;;;4.40;92.00;;;;;;5076752;28;20540;-84
2022/03/13 07:02:45;;;;;;;20.63;15.38;;;5.00;91.80;;;;;;5068225;28;20234;-83
2022/03/13 07:05:10;;;;;;;20.10;15.37;;;4.80;91.50;;;;;;5069929;28;20590;-83
2022/03/13 07:07:36;;;;;;;22.33;15.93;;;5.20;91.60;;;;;;5056475;28;20215;-83
2022/03/13 07:10:02;;;;;;;21.07;15.83;;;4.90;91.20;;;;;;5052469;28;20184;-83
2022/03/13 07:12:27;;;;;;;24.00;15.90;;;5.40;91.10;;;;;;5043971;28;20200;-81
2022/03/13 07:14:57;;;;;;;20.90;16.00;;;5.30;90.50;;;;;;5049693;28;20211;-81
2022/03/13 07:17:23;;;;;;;19.30;16.27;;;5.40;90.60;;;;;;5067148;28;20667;-80
2022/03/13 07:19:48;;;;;;;19.73;15.40;;;5.40;90.20;;;;;;5070840;28;20181;-82
2022/03/13 07:22:14;;;;;;;24.70;17.43;;;6.30;88.50;;;;;;5061608;28;20490;-83
2022/03/13 07:24:41;;;;;;;21.00;16.80;;;7.50;84.60;;;;;;5054694;28;20718;-82
2022/03/13 07:27:07;;;;;;;20.55;16.83;;;8.40;79.40;;;;;;5069146;28;20178;-81
2022/03/13 07:29:33;;;;;;;19.23;16.10;;;9.50;74.40;;;;;;5052486;28;20243;-82
2022/03/13 07:31:58;;;;;;;21.63;16.37;;;10.20;69.90;;;;;;5053821;28;20269;-83
2022/03/13 07:34:24;;;;;;;36.67;16.80;;;11.60;66.10;;;;;;5058252;28;20436;-83
2022/03/13 07:36:51;;;;;;;20.17;16.92;;;12.60;61.50;;;;;;5046910;28;20192;-80
2022/03/13 07:39:21;;;;;;;21.15;16.75;;;13.20;58.70;;;;;;5059578;28;20544;-80
2022/03/13 07:41:47;;;;;;;19.05;17.05;;;14.00;56.20;;;;;;5057266;28;20217;-82
2022/03/13 07:44:13;;;;;;;20.73;18.08;;;14.80;54.20;;;;;;5064088;28;20192;-82
2022/03/13 07:46:38;;;;;;;20.43;17.87;;;16.40;52.30;;;;;;5067437;28;20202;-78
2022/03/13 07:49:04;;;;;;;20.03;17.50;;;16.30;51.60;;;;;;5071579;28;20183;-78
2022/03/13 07:51:30;;;;;;;20.33;18.00;;;15.20;51.90;;;;;;5067701;28;20188;-78
2022/03/13 07:53:55;;;;;;;20.57;17.70;;;13.70;52.90;;;;;;5072666;28;20176;-79
2022/03/13 07:56:23;;;;;;;21.43;17.93;;;13.90;54.50;;;;;;5066136;28;20462;-78
2022/03/13 07:58:49;;;;;;;21.13;17.48;;;14.50;52.60;;;;;;5058514;28;20192;-79
2022/03/13 08:01:14;;;;;;;21.40;18.03;;;13.00;53.20;;;;;;5063961;28;20185;-80
2022/03/13 08:03:44;;;;;;;21.40;18.47;;;14.60;54.40;;;;;;5071834;28;20906;-80
2022/03/13 08:06:10;;;;;;;20.40;17.80;;;14.50;52.80;;;;;;5067362;28;20192;-79
2022/03/13 08:08:36;;;;;;;22.45;18.45;;;15.30;51.60;;;;;;5056401;28;20624;-80
2022/03/13 08:11:02;;;;;;;19.47;17.43;;;15.60;52.00;;;;;;5063880;28;20196;-80
2022/03/13 08:13:28;;;;;;;20.65;18.40;;;16.50;50.20;;;;;;5061194;28;20525;-80
2022/03/13 08:15:53;;;;;;;24.83;18.83;;;16.60;49.20;;;;;;5061325;28;20291;-79
2022/03/13 08:18:20;;;;;;;21.27;18.97;;;16.30;48.80;;;;;;5065618;28;20179;-80
2022/03/13 08:20:45;;;;;;;20.02;17.92;;;16.10;49.60;;;;;;5074825;28;20257;-80
2022/03/13 08:23:11;;;;;;;21.70;18.97;;;16.30;49.80;;;;;;5051106;28;20181;-80
2022/03/13 08:25:36;;;;;;;23.53;19.43;;;17.60;48.10;;;;;;5060160;28;20212;-79
2022/03/13 08:28:02;;;;;;;21.43;18.70;;;18.50;46.60;;;;;;5062749;28;20728;-78
2022/03/13 08:30:28;;;;;;;20.27;17.77;;;18.00;45.70;;;;;;5068695;28;20181;-79
2022/03/13 08:32:54;;;;;;;22.60;20.40;;;17.20;45.80;;;;;;5067093;28;20180;-79
2022/03/13 08:35:20;;;;;;;18.77;15.70;;;17.20;46.50;;;;;;5059563;28;20490;-79
2022/03/13 08:37:45;;;;;;;18.53;16.53;;;16.80;46.50;;;;;;5063425;28;20200;-79
2022/03/13 08:40:12;;;;;;;17.83;15.93;;;16.50;46.00;;;;;;5064213;28;20184;-79
2022/03/13 08:42:38;;;;;;;22.10;18.88;;;16.90;46.70;;;;;;5066454;28;20177;-79
2022/03/13 08:45:05;;;;;;;22.25;18.02;;;16.40;46.40;;;;;;5064478;28;20223;-79
2022/03/13 08:47:30;;;;;;;21.98;19.05;;;15.40;48.50;;;;;;5068310;28;20615;-79
2022/03/13 08:49:56;;;;;;;20.63;18.53;;;15.70;47.80;;;;;;5055095;28;20260;-79
2022/03/13 08:52:22;;;;;;;20.37;17.50;;;16.20;48.50;;;;;;5065282;28;20306;-79
2022/03/13 08:54:48;;;;;;;19.23;17.13;;;16.90;47.30;;;;;;5069902;28;20614;-79
2022/03/13 08:57:14;;;;;;;19.90;17.83;;;17.20;46.00;;;;;;5065731;28;20193;-79
2022/03/13 08:59:40;;;;;;;19.97;17.40;;;17.30;45.00;;;;;;5063791;28;21001;-79
2022/03/13 09:02:06;;;;;;;19.90;17.80;;;17.90;45.40;;;;;;5046970;28;20188;-80
2022/03/13 09:04:32;;;;;;;18.07;16.17;;;18.40;45.00;;;;;;5066578;28;20214;-79
2022/03/13 09:06:58;;;;;;;20.53;17.07;;;18.40;44.30;;;;;;5062789;28;20208;-79
2022/03/13 09:09:24;;;;;;;21.33;18.70;;;16.30;45.30;;;;;;5053455;28;20431;-79
2022/03/13 09:11:51;;;;;;;19.50;15.60;;;17.20;46.30;;;;;;5071604;28;20466;-79
2022/03/13 09:14:17;;;;;;;22.05;17.48;;;17.60;45.30;;;;;;5067049;28;20200;-78
2022/03/13 09:16:43;;;;;;;18.90;16.35;;;18.50;44.60;;;;;;5073423;28;20562;-79
2022/03/13 09:19:09;;;;;;;19.23;17.25;;;19.20;43.70;;;;;;5073723;28;20665;-79
2022/03/13 09:21:38;;;;;;;18.33;16.43;;;18.90;43.10;;;;;;5080868;28;20198;-79
2022/03/13 09:24:09;;;;;;;21.08;18.10;;;17.50;43.90;;;;;;5055468;28;20204;-79
2022/03/13 09:26:35;;;;;;;19.40;17.35;;;18.50;45.30;;;;;;5053429;28;20233;-79
2022/03/13 09:29:02;;;;;;;18.63;16.73;;;20.10;42.40;;;;;;5071310;28;20181;-79
2022/03/13 09:31:28;;;;;;;22.77;18.60;;;18.40;42.20;;;;;;5069602;28;20177;-78
2022/03/13 09:33:53;;;;;;;18.87;16.80;;;17.80;44.10;;;;;;5070827;28;20186;-79
2022/03/13 09:36:19;;;;;;;19.90;17.80;;;19.20;44.10;;;;;;5060879;28;20196;-79
2022/03/13 09:38:45;;;;;;;19.93;17.77;;;19.90;42.70;;;;;;5066536;28;20188;-80
2022/03/13 09:41:11;;;;;;;19.80;17.10;;;20.50;40.80;;;;;;5063689;28;20199;-80
2022/03/13 09:43:37;;;;;;;19.73;17.80;;;20.80;40.00;;;;;;5045907;28;20442;-80
2022/03/13 09:46:03;;;;;;;22.60;18.97;;;21.60;39.50;;;;;;5069940;28;20524;-80
2022/03/13 09:48:30;;;;;;;22.10;18.03;;;22.30;38.90;;;;;;5074947;28;20181;-79
2022/03/13 09:50:56;;;;;;;20.13;17.97;;;22.80;37.80;;;;;;5067041;28;20485;-78
2022/03/13 09:53:22;;;;;;;20.13;18.17;;;22.90;37.00;;;;;;5070479;28;20447;-78
2022/03/13 09:55:48;;;;;;;20.67;18.77;;;23.30;36.30;;;;;;5070195;28;20803;-78
2022/03/13 09:58:14;;;;;;;20.00;18.10;;;22.80;36.30;;;;;;5053801;28;20458;-80
2022/03/13 10:00:39;;;;;;;19.17;17.17;;;23.40;36.10;;;;;;5073673;28;20611;-81
2022/03/13 10:03:06;;;;;;;20.27;18.20;;;23.80;35.30;;;;;;5065384;28;20428;-80
2022/03/13 10:05:44;;;;;;;19.50;17.60;;;23.00;34.90;;;;;;5047194;28;20998;-80
2022/03/13 10:08:10;;;;;;;19.87;17.77;;;22.70;35.70;;;;;;5064602;28;20434;-80
2022/03/13 10:10:45;;;;;;;20.40;18.40;;;23.40;35.60;;;;;;5062536;28;20492;-77
2022/03/13 10:13:14;;;;;;;19.97;17.77;;;23.70;34.80;;;;;;5061301;28;20435;-78
2022/03/13 10:15:46;;;;;;;21.40;19.30;;;24.20;34.70;;;;;;5071302;28;20463;-78
2022/03/13 10:18:13;;;;;;;19.43;17.53;;;24.30;34.50;;;;;;5066417;28;20469;-78
2022/03/13 10:20:41;;;;;;;19.33;17.40;;;24.10;34.10;;;;;;5074336;28;20462;-78
2022/03/13 10:23:10;;;;;;;21.90;18.40;;;24.40;34.20;;;;;;5068874;28;20526;-78
2022/03/13 10:25:41;;;;;;;20.57;18.27;;;24.80;33.40;;;;;;5070086;28;20833;-77
2022/03/13 10:28:21;;;;;;;20.03;17.97;;;24.10;33.50;;;;;;5066226;28;20466;-79
2022/03/13 10:30:55;;;;;;;20.97;18.80;;;23.00;35.80;;;;;;5072749;28;20454;-79
2022/03/13 10:33:20;;;;;;;22.70;19.17;;;23.50;35.00;;;;;;5067850;28;20440;-79
2022/03/13 10:35:47;;;;;;;19.03;17.23;;;23.60;34.60;;;;;;5069302;28;20888;-78
2022/03/13 10:38:19;;;;;;;20.17;18.07;;;23.70;34.10;;;;;;5063779;28;20662;-78
2022/03/13 10:40:49;;;;;;;19.93;18.00;;;23.50;34.20;;;;;;5080866;28;20500;-78
2022/03/13 10:43:19;;;;;;;19.10;17.33;;;22.10;35.20;;;;;;5065018;28;20812;-78
2022/03/13 10:45:51;;;;;;;19.60;17.70;;;21.40;36.10;;;;;;5062532;28;20537;-78
2022/03/13 10:48:18;;;;;;;20.93;18.80;;;21.50;37.30;;;;;;5073935;28;20439;-79
2022/03/13 10:50:44;;;;;;;19.30;17.40;;;21.40;37.20;;;;;;5072769;28;20431;-79
2022/03/13 10:53:13;;;;;;;19.53;17.57;;;21.30;36.90;;;;;;5070577;28;20541;-78
2022/03/13 10:55:39;;;;;;;25.07;19.20;;;20.80;37.50;;;;;;5068093;28;20545;-79
2022/03/13 10:58:05;;;;;;;22.70;20.30;;;20.30;37.30;;;;;;5058472;28;20539;-79
2022/03/13 11:00:30;;;;;;;23.17;19.03;;;19.80;39.50;;;;;;5070267;28;20276;-79
2022/03/13 11:03:12;;;;;;;20.10;18.00;;;19.60;39.40;;;;;;5073561;28;20446;-79
2022/03/13 11:05:38;;;;;;;22.58;17.95;;;20.40;38.70;;;;;;5051711;28;20738;-79
2022/03/13 11:08:04;;;;;;;20.27;18.37;;;20.60;38.50;;;;;;5068364;28;20173;-79
2022/03/13 11:10:30;;;;;;;26.60;18.97;;;21.70;37.20;;;;;;5081594;28;20473;-79
2022/03/13 11:12:57;;;;;;;21.13;18.97;;;22.60;36.30;;;;;;5066006;28;20484;-79
2022/03/13 11:15:27;;;;;;;21.20;18.80;;;23.10;35.10;;;;;;5066352;28;20519;-79
2022/03/13 11:17:54;;;;;;;21.40;19.20;;;23.50;34.80;;;;;;5069584;28;20533;-79
2022/03/13 11:20:21;;;;;;;22.57;20.10;;;23.60;34.80;;;;;;5073058;28;20504;-79
2022/03/13 11:22:47;;;;;;;23.40;21.00;;;23.10;35.50;;;;;;5068080;28;20451;-79
2022/03/13 11:25:13;;;;;;;21.63;19.43;;;23.60;35.00;;;;;;5067773;28;20478;-79
2022/03/13 11:27:40;;;;;;;20.90;18.67;;;22.60;34.30;;;;;;5062173;28;20452;-79
2022/03/13 11:30:09;;;;;;;21.40;18.83;;;22.10;35.00;;;;;;5073124;28;20226;-79
2022/03/13 11:32:46;;;;;;;21.90;19.60;;;21.90;35.80;;;;;;5068960;28;21723;-79
2022/03/13 11:35:18;;;;;;;21.77;19.43;;;21.80;35.40;;;;;;5063166;28;20506;-79
2022/03/13 11:38:14;;;;;;;21.63;19.37;;;21.50;35.60;;;;;;5061931;28;20454;-79
2022/03/13 11:40:40;;;;;;;23.70;20.83;;;20.90;36.20;;;;;;5067006;28;20521;-79
2022/03/13 11:43:15;;;;;;;21.45;19.15;;;20.50;36.80;;;;;;5049353;28;20442;-78
2022/03/13 11:46:00;;;;;;;22.13;19.73;;;19.90;37.50;;;;;;5042527;28;20248;-82
2022/03/13 11:48:29;;;;;;;22.30;19.88;;;19.60;37.70;;;;;;5068203;28;20282;-81
2022/03/13 11:51:00;;;;;;;21.42;19.13;;;19.80;37.80;;;;;;5065087;28;20284;-81
2022/03/13 11:53:28;;;;;;;23.73;19.55;;;20.40;38.70;;;;;;5060052;28;20263;-81
2022/03/13 11:56:02;;;;;;;23.75;19.65;;;20.40;38.90;;;;;;5051048;28;20205;-81
2022/03/13 11:58:47;;;;;;;24.17;19.92;;;19.80;38.70;;;;;;5043126;28;20549;-79
2022/03/13 12:01:15;;;;;;;22.45;17.60;;;19.90;39.40;;;;;;5074748;28;20271;-79
2022/03/13 12:04:14;;;;;;;21.10;18.33;;;19.60;39.30;;;;;;5072326;28;20229;-80
2022/03/13 12:06:44;;;;;;;22.40;19.25;;;19.60;39.50;;;;;;5065231;28;20182;-80
2022/03/13 12:09:11;;;;;;;23.00;18.00;;;19.10;39.40;;;;;;5048279;28;20246;-82
2022/03/13 12:11:43;;;;;;;22.90;19.02;;;19.60;40.10;;;;;;5063828;28;20556;-81
2022/03/13 12:14:10;;;;;;;19.98;17.70;;;19.80;38.90;;;;;;5060288;28;20189;-80
2022/03/13 12:16:37;;;;;;;22.00;18.77;;;19.90;38.70;;;;;;5066148;28;20227;-80
2022/03/13 12:19:04;;;;;;;20.60;18.40;;;19.50;38.70;;;;;;5053781;28;20216;-80
2022/03/13 12:21:31;;;;;;;21.60;17.23;;;19.80;38.70;;;;;;5071184;28;20188;-80
2022/03/13 12:24:15;;;;;;;21.05;17.27;;;19.90;38.80;;;;;;5060079;28;20177;-80
2022/03/13 12:26:53;;;;;;;18.17;16.23;;;19.80;38.70;;;;;;5055395;28;20172;-80
2022/03/13 12:29:19;;;;;;;21.92;19.30;;;19.40;38.60;;;;;;5045055;28;20649;-80
2022/03/13 12:31:49;;;;;;;20.40;18.20;;;19.30;39.00;;;;;;5076869;28;20185;-80
2022/03/13 12:34:29;;;;;;;23.05;17.95;;;19.00;39.00;;;;;;5067814;28;20224;-80